Private Wetterstation Sandau
Wetterdaten: Mittwoch, 06.02.2013
Datum Zeit Temp. A. Feuchte A. Luftdruck Regen Wind Richtung Richtung Taupunkt Windchill
06.02.2013 00:01 0,1 C 89 % 996,8 hPa 0,0 l/m 6,1 km/h (2 Bft) W-SW 247 -1,5 C -1,9 C
06.02.2013 00:06 0,1 C 89 % 996,7 hPa 0,0 l/m 9,7 km/h (2 Bft) S-SW 202 -1,5 C -3,1 C
06.02.2013 00:11 -0,1 C 88 % 996,9 hPa 0,0 l/m 8,3 km/h (2 Bft) W-SW 247 -1,8 C -2,9 C
06.02.2013 00:16 -0,1 C 88 % 996,9 hPa 0,0 l/m 13,0 km/h (3 Bft) W-SW 247 -1,8 C -4,1 C
06.02.2013 00:21 -0,1 C 88 % 996,8 hPa 0,0 l/m 14,4 km/h (3 Bft) W-SW 247 -1,8 C -4,4 C
06.02.2013 00:26 -0,1 C 89 % 996,9 hPa 0,0 l/m 6,8 km/h (2 Bft) S-SW 202 -1,7 C -2,4 C
06.02.2013 00:31 -0,1 C 89 % 996,9 hPa 0,0 l/m 7,2 km/h (2 Bft) W-SW 247 -1,7 C -2,6 C
06.02.2013 00:36 -0,1 C 89 % 996,9 hPa 0,0 l/m 8,3 km/h (2 Bft) SW 225 -1,7 C -2,9 C
06.02.2013 00:41 -0,2 C 89 % 996,9 hPa 0,0 l/m 6,5 km/h (2 Bft) S-SW 202 -1,8 C -2,5 C
06.02.2013 00:46 -0,2 C 89 % 996,8 hPa 0,0 l/m 5,4 km/h (1 Bft) W-SW 247 -1,8 C -2,0 C
06.02.2013 00:51 -0,2 C 89 % 996,9 hPa 0,0 l/m 11,2 km/h (2 Bft) W-SW 247 -1,8 C -3,9 C
06.02.2013 00:56 -0,2 C 89 % 996,9 hPa 0,0 l/m 5,4 km/h (1 Bft) W-SW 247 -1,8 C -2,0 C
06.02.2013 01:01 -0,2 C 89 % 996,9 hPa 0,0 l/m 11,9 km/h (2 Bft) W 270 -1,8 C -4,0 C
06.02.2013 01:06 -0,2 C 89 % 996,8 hPa 0,0 l/m 4,0 km/h (1 Bft) SW 225 -1,8 C -0,2 C
06.02.2013 01:11 -0,3 C 89 % 996,8 hPa 0,0 l/m 9,0 km/h (2 Bft) W 270 -1,9 C -3,4 C
06.02.2013 01:16 -0,4 C 89 % 996,8 hPa 0,0 l/m 10,1 km/h (2 Bft) W-SW 247 -2,0 C -3,8 C
06.02.2013 01:21 -0,4 C 89 % 996,8 hPa 0,0 l/m 13,3 km/h (3 Bft) W 270 -2,0 C -4,6 C
06.02.2013 01:26 -0,4 C 89 % 996,9 hPa 0,0 l/m 11,9 km/h (2 Bft) W-SW 247 -2,0 C -4,3 C
06.02.2013 01:31 -0,4 C 89 % 996,9 hPa 0,0 l/m 10,4 km/h (2 Bft) W-SW 247 -2,0 C -3,9 C
06.02.2013 01:36 -0,4 C 89 % 997,0 hPa 0,0 l/m 6,5 km/h (2 Bft) SW 225 -2,0 C -2,7 C
06.02.2013 01:41 -0,2 C 89 % 997,0 hPa 0,0 l/m 16,6 km/h (3 Bft) W 270 -1,8 C -5,0 C
06.02.2013 01:46 -0,3 C 89 % 996,9 hPa 0,0 l/m 17,3 km/h (3 Bft) W-SW 247 -1,9 C -5,2 C
06.02.2013 01:51 -0,2 C 89 % 997,1 hPa 0,0 l/m 11,5 km/h (2 Bft) W-SW 247 -1,8 C -3,9 C
06.02.2013 01:56 -0,2 C 89 % 997,2 hPa 0,0 l/m 5,8 km/h (2 Bft) S-SW 202 -1,8 C -2,2 C
06.02.2013 02:01 -0,2 C 89 % 997,3 hPa 0,0 l/m 5,0 km/h (1 Bft) S-SW 202 -1,8 C -1,8 C
06.02.2013 02:06 -0,3 C 89 % 997,2 hPa 0,0 l/m 3,6 km/h (1 Bft) SW 225 -1,9 C -0,3 C
06.02.2013 02:11 -0,4 C 89 % 997,3 hPa 0,0 l/m 8,6 km/h (2 Bft) S-SW 202 -2,0 C -3,4 C
06.02.2013 02:16 -0,4 C 89 % 997,3 hPa 0,0 l/m 9,7 km/h (2 Bft) W-SW 247 -2,0 C -3,7 C
06.02.2013 02:21 -0,4 C 89 % 997,3 hPa 0,0 l/m 8,3 km/h (2 Bft) SW 225 -2,0 C -3,3 C
06.02.2013 02:26 -0,5 C 89 % 997,3 hPa 0,0 l/m 6,8 km/h (2 Bft) W-SW 247 -2,1 C -2,9 C
06.02.2013 02:31 -0,5 C 89 % 997,1 hPa 0,0 l/m 15,8 km/h (3 Bft) SW 225 -2,1 C -5,2 C
06.02.2013 02:36 -0,6 C 89 % 997,2 hPa 0,0 l/m 7,6 km/h (2 Bft) SW 225 -2,2 C -3,3 C
06.02.2013 02:41 -0,6 C 89 % 997,2 hPa 0,0 l/m 8,3 km/h (2 Bft) S-SW 202 -2,2 C -3,5 C
06.02.2013 02:46 -0,6 C 89 % 997,2 hPa 0,0 l/m 6,8 km/h (2 Bft) W-SW 247 -2,2 C -3,0 C
06.02.2013 02:51 -0,7 C 89 % 997,3 hPa 0,0 l/m 4,0 km/h (1 Bft) S-SW 202 -2,3 C -0,7 C
06.02.2013 02:56 -0,7 C 90 % 997,2 hPa 0,0 l/m 11,2 km/h (2 Bft) W-SW 247 -2,1 C -4,5 C
06.02.2013 03:01 -0,7 C 90 % 997,2 hPa 0,0 l/m 7,2 km/h (2 Bft) S-SO 157 -2,1 C -3,3 C
06.02.2013 03:06 -0,7 C 90 % 997,2 hPa 0,0 l/m 10,1 km/h (2 Bft) SW 225 -2,1 C -4,2 C
06.02.2013 03:11 -0,7 C 90 % 997,2 hPa 0,0 l/m 5,0 km/h (1 Bft) S-SO 157 -2,1 C -2,4 C
06.02.2013 03:16 -0,7 C 90 % 997,3 hPa 0,0 l/m 6,8 km/h (2 Bft) S-SW 202 -2,1 C -3,1 C
06.02.2013 03:21 -0,8 C 90 % 997,0 hPa 0,0 l/m 11,5 km/h (2 Bft) W-SW 247 -2,2 C -4,7 C
06.02.2013 03:26 -0,8 C 90 % 997,0 hPa 0,0 l/m 7,6 km/h (2 Bft) SW 225 -2,2 C -3,5 C
06.02.2013 03:31 -0,8 C 90 % 997,0 hPa 0,0 l/m 9,7 km/h (2 Bft) W-SW 247 -2,2 C -4,2 C
06.02.2013 03:36 -0,8 C 90 % 997,1 hPa 0,0 l/m 10,8 km/h (2 Bft) W-SW 247 -2,2 C -4,5 C
06.02.2013 03:41 -0,8 C 90 % 997,0 hPa 0,0 l/m 7,2 km/h (2 Bft) W-SW 247 -2,2 C -3,4 C
06.02.2013 03:46 -0,7 C 90 % 996,9 hPa 0,0 l/m 9,7 km/h (2 Bft) W 270 -2,1 C -4,1 C
06.02.2013 03:51 -0,7 C 90 % 996,9 hPa 0,0 l/m 9,4 km/h (2 Bft) W-SW 247 -2,1 C -4,0 C
06.02.2013 03:56 -0,7 C 90 % 997,0 hPa 0,0 l/m 3,6 km/h (1 Bft) S-SW 202 -2,1 C -0,7 C
06.02.2013 04:01 -0,7 C 90 % 997,0 hPa 0,0 l/m 14,8 km/h (3 Bft) W-SW 247 -2,1 C -5,2 C
06.02.2013 04:06 -0,7 C 90 % 997,2 hPa 0,0 l/m 7,9 km/h (2 Bft) W-SW 247 -2,1 C -3,5 C
06.02.2013 04:11 -0,7 C 90 % 996,8 hPa 0,0 l/m 7,2 km/h (2 Bft) S-SW 202 -2,1 C -3,3 C
06.02.2013 04:16 -0,8 C 90 % 996,9 hPa 0,0 l/m 8,3 km/h (2 Bft) W-SW 247 -2,2 C -3,8 C
06.02.2013 04:21 -0,8 C 90 % 996,9 hPa 0,0 l/m 7,6 km/h (2 Bft) W 270 -2,2 C -3,5 C
06.02.2013 04:26 -0,8 C 90 % 996,9 hPa 0,0 l/m 4,3 km/h (1 Bft) W-SW 247 -2,2 C -0,8 C
06.02.2013 04:31 -0,8 C 90 % 996,9 hPa 0,0 l/m 6,8 km/h (2 Bft) W-SW 247 -2,2 C -3,3 C
06.02.2013 04:36 -0,8 C 90 % 997,0 hPa 0,0 l/m 6,8 km/h (2 Bft) SW 225 -2,2 C -3,3 C
06.02.2013 04:41 -0,9 C 90 % 996,9 hPa 0,0 l/m 5,0 km/h (1 Bft) S 180 -2,3 C -2,6 C
06.02.2013 04:46 -0,9 C 90 % 996,9 hPa 0,0 l/m 6,8 km/h (2 Bft) W-SW 247 -2,3 C -3,4 C
06.02.2013 04:51 -0,9 C 90 % 996,9 hPa 0,0 l/m 10,8 km/h (2 Bft) W-SW 247 -2,3 C -4,6 C
06.02.2013 04:56 -1,0 C 90 % 997,1 hPa 0,0 l/m 6,1 km/h (2 Bft) S 180 -2,4 C -3,2 C
06.02.2013 05:01 -1,0 C 90 % 997,2 hPa 0,0 l/m 5,0 km/h (1 Bft) S 180 -2,4 C -2,7 C
06.02.2013 05:06 -1,1 C 90 % 997,2 hPa 0,0 l/m 6,1 km/h (2 Bft) S-SW 202 -2,5 C -3,3 C
06.02.2013 05:11 -1,1 C 89 % 997,2 hPa 0,0 l/m 3,6 km/h (1 Bft) S-SW 202 -2,7 C -1,1 C
06.02.2013 05:16 -1,2 C 89 % 997,2 hPa 0,0 l/m 4,0 km/h (1 Bft) S-SW 202 -2,8 C -1,2 C
06.02.2013 05:21 -1,3 C 89 % 997,1 hPa 0,0 l/m 3,2 km/h (1 Bft) SW 225 -2,9 C -1,3 C
06.02.2013 05:26 -1,4 C 89 % 997,2 hPa 0,0 l/m 2,5 km/h (1 Bft) SW 225 -3,0 C -1,4 C
06.02.2013 05:31 -1,4 C 89 % 997,1 hPa 0,0 l/m 3,2 km/h (1 Bft) S-SW 202 -3,0 C -1,4 C
06.02.2013 05:36 -1,5 C 89 % 997,2 hPa 0,0 l/m 4,0 km/h (1 Bft) SW 225 -3,1 C -1,5 C
06.02.2013 05:41 -1,5 C 89 % 997,2 hPa 0,0 l/m 7,2 km/h (2 Bft) W-SW 247 -3,1 C -4,2 C
06.02.2013 05:46 -1,4 C 89 % 997,3 hPa 0,0 l/m 8,3 km/h (2 Bft) W-SW 247 -3,0 C -4,5 C
06.02.2013 05:51 -1,4 C 89 % 997,2 hPa 0,0 l/m 2,2 km/h (1 Bft) S 180 -3,0 C -1,4 C
06.02.2013 05:56 -1,4 C 89 % 997,2 hPa 0,0 l/m 7,6 km/h (2 Bft) SW 225 -3,0 C -4,2 C
06.02.2013 06:01 -1,4 C 89 % 997,2 hPa 0,0 l/m 9,7 km/h (2 Bft) SW 225 -3,0 C -4,9 C
06.02.2013 06:06 -1,4 C 89 % 997,2 hPa 0,0 l/m 7,2 km/h (2 Bft) S-SW 202 -3,0 C -4,1 C
06.02.2013 06:11 -1,4 C 90 % 997,3 hPa 0,0 l/m 4,3 km/h (1 Bft) W-SW 247 -2,8 C -1,4 C
06.02.2013 06:16 -1,3 C 90 % 997,4 hPa 0,0 l/m 6,1 km/h (2 Bft) S-SW 202 -2,7 C -3,6 C
06.02.2013 06:21 -1,3 C 90 % 997,4 hPa 0,0 l/m 11,2 km/h (2 Bft) W-SW 247 -2,7 C -5,2 C
06.02.2013 06:26 -1,2 C 90 % 997,4 hPa 0,0 l/m 5,0 km/h (1 Bft) W-SW 247 -2,6 C -3,0 C
06.02.2013 06:31 -1,2 C 90 % 997,3 hPa 0,0 l/m 4,7 km/h (1 Bft) W-SW 247 -2,6 C -2,8 C
06.02.2013 06:36 -1,2 C 90 % 997,2 hPa 0,0 l/m 5,0 km/h (1 Bft) W-SW 247 -2,6 C -3,0 C
06.02.2013 06:41 -1,1 C 90 % 997,2 hPa 0,0 l/m 5,4 km/h (1 Bft) W 270 -2,5 C -3,0 C
06.02.2013 06:46 -1,1 C 90 % 997,4 hPa 0,0 l/m 16,2 km/h (3 Bft) W-SW 247 -2,5 C -6,0 C
06.02.2013 06:51 -1,2 C 90 % 997,3 hPa 0,0 l/m 11,2 km/h (2 Bft) SW 225 -2,6 C -5,1 C
06.02.2013 06:56 -1,1 C 90 % 997,3 hPa 0,0 l/m 6,1 km/h (2 Bft) W-SW 247 -2,5 C -3,3 C
06.02.2013 07:01 -1,2 C 90 % 997,2 hPa 0,0 l/m 7,2 km/h (2 Bft) SW 225 -2,6 C -3,9 C
06.02.2013 07:06 -1,2 C 90 % 997,1 hPa 0,0 l/m 3,2 km/h (1 Bft) SW 225 -2,6 C -1,2 C
06.02.2013 07:11 -1,2 C 89 % 997,3 hPa 0,0 l/m 6,1 km/h (2 Bft) W-SW 247 -2,8 C -3,4 C
06.02.2013 07:16 -1,3 C 89 % 997,2 hPa 0,0 l/m 8,6 km/h (2 Bft) W-SW 247 -2,9 C -4,5 C
06.02.2013 07:21 -1,3 C 89 % 997,4 hPa 0,0 l/m 5,8 km/h (2 Bft) W-SW 247 -2,9 C -3,4 C
06.02.2013 07:26 -1,4 C 89 % 997,4 hPa 0,0 l/m 3,6 km/h (1 Bft) W-SW 247 -3,0 C -1,4 C
06.02.2013 07:31 -1,4 C 89 % 997,4 hPa 0,0 l/m 5,0 km/h (1 Bft) W-SW 247 -3,0 C -3,2 C
06.02.2013 07:36 -1,4 C 89 % 997,6 hPa 0,0 l/m 10,4 km/h (2 Bft) SW 225 -3,0 C -5,1 C
06.02.2013 07:41 -1,4 C 89 % 997,6 hPa 0,0 l/m 10,8 km/h (2 Bft) W-SW 247 -3,0 C -5,2 C
06.02.2013 07:46 -1,4 C 89 % 997,7 hPa 0,0 l/m 5,0 km/h (1 Bft) SW 225 -3,0 C -3,2 C
06.02.2013 07:51 -1,4 C 89 % 997,7 hPa 0,0 l/m 9,7 km/h (2 Bft) W-SW 247 -3,0 C -4,9 C
06.02.2013 07:56 -1,4 C 89 % 997,8 hPa 0,0 l/m 11,2 km/h (2 Bft) S-SW 202 -3,0 C -5,3 C
06.02.2013 08:01 -1,4 C 89 % 997,9 hPa 0,0 l/m 5,0 km/h (1 Bft) W-SW 247 -3,0 C -3,2 C
06.02.2013 08:06 -1,5 C 89 % 997,9 hPa 0,0 l/m 3,6 km/h (1 Bft) SW 225 -3,1 C -1,5 C
06.02.2013 08:11 -1,5 C 89 % 997,8 hPa 0,0 l/m 7,2 km/h (2 Bft) SW 225 -3,1 C -4,2 C
06.02.2013 08:16 -1,5 C 89 % 997,8 hPa 0,0 l/m 9,4 km/h (2 Bft) S-SW 202 -3,1 C -4,9 C
06.02.2013 08:21 -1,4 C 89 % 997,6 hPa 0,0 l/m 2,9 km/h (1 Bft) SW 225 -3,0 C -1,4 C
06.02.2013 08:26 -1,4 C 89 % 997,8 hPa 0,0 l/m 8,6 km/h (2 Bft) S-SW 202 -3,0 C -4,6 C
06.02.2013 08:31 -1,3 C 89 % 997,8 hPa 0,0 l/m 5,0 km/h (1 Bft) W-SW 247 -2,9 C -3,1 C
06.02.2013 08:36 -1,2 C 90 % 997,9 hPa 0,0 l/m 5,8 km/h (2 Bft) SW 225 -2,6 C -3,3 C
06.02.2013 08:41 -1,2 C 90 % 997,9 hPa 0,0 l/m 7,2 km/h (2 Bft) SW 225 -2,6 C -3,9 C
06.02.2013 08:46 -1,1 C 90 % 997,8 hPa 0,0 l/m 6,8 km/h (2 Bft) SW 225 -2,5 C -3,6 C
06.02.2013 08:51 -1,1 C 90 % 998,0 hPa 0,0 l/m 7,2 km/h (2 Bft) SW 225 -2,5 C -3,8 C
06.02.2013 08:56 -1,0 C 89 % 997,9 hPa 0,0 l/m 3,2 km/h (1 Bft) SW 225 -2,6 C -1,0 C
06.02.2013 09:01 -0,9 C 89 % 998,1 hPa 0,0 l/m 5,8 km/h (2 Bft) S-SW 202 -2,5 C -3,0 C
06.02.2013 09:06 -0,7 C 89 % 998,0 hPa 0,0 l/m 6,5 km/h (2 Bft) S-SW 202 -2,3 C -3,0 C
06.02.2013 09:11 -0,7 C 89 % 998,0 hPa 0,0 l/m 7,6 km/h (2 Bft) S-SW 202 -2,3 C -3,4 C
06.02.2013 09:16 -0,6 C 89 % 998,0 hPa 0,0 l/m 6,1 km/h (2 Bft) S-SW 202 -2,2 C -2,8 C
06.02.2013 09:21 -0,4 C 88 % 998,0 hPa 0,0 l/m 13,3 km/h (3 Bft) W 270 -2,1 C -4,6 C
06.02.2013 09:26 -0,3 C 88 % 998,0 hPa 0,0 l/m 4,7 km/h (1 Bft) S-SW 202 -2,0 C -1,8 C
06.02.2013 09:31 -0,2 C 88 % 998,1 hPa 0,0 l/m 7,6 km/h (2 Bft) SW 225 -1,9 C -2,8 C
06.02.2013 09:36 0,1 C 88 % 998,1 hPa 0,0 l/m 6,8 km/h (2 Bft) W-SW 247 -1,6 C -2,2 C
06.02.2013 09:41 0,1 C 88 % 998,0 hPa 0,0 l/m 10,1 km/h (2 Bft) S-SW 202 -1,6 C -3,2 C
06.02.2013 09:46 0,3 C 88 % 998,2 hPa 0,0 l/m 9,7 km/h (2 Bft) SW 225 -1,4 C -2,9 C
06.02.2013 09:51 0,4 C 87 % 998,2 hPa 0,0 l/m 7,2 km/h (2 Bft) W-NW 292 -1,5 C -2,0 C
06.02.2013 09:56 0,5 C 87 % 998,2 hPa 0,0 l/m 10,8 km/h (2 Bft) SW 225 -1,4 C -2,9 C
06.02.2013 10:01 0,6 C 87 % 998,2 hPa 0,0 l/m 6,1 km/h (2 Bft) W-SW 247 -1,3 C -1,4 C
06.02.2013 10:06 0,7 C 86 % 998,2 hPa 0,5 l/m 6,1 km/h (2 Bft) W-SW 247 -1,4 C -1,3 C
06.02.2013 10:11 0,9 C 86 % 998,2 hPa 0,0 l/m 2,9 km/h (1 Bft) W-SW 247 -1,2 C 0,9 C
06.02.2013 10:16 1,0 C 85 % 998,2 hPa 0,0 l/m 5,0 km/h (1 Bft) S-SW 202 -1,2 C -0,5 C
06.02.2013 10:21 1,2 C 85 % 998,2 hPa 0,0 l/m 13,0 km/h (3 Bft) SW 225 -1,0 C -2,6 C
06.02.2013 10:26 1,3 C 85 % 998,4 hPa 0,0 l/m 7,2 km/h (2 Bft) SW 225 -0,9 C -1,0 C
06.02.2013 10:31 1,3 C 84 % 998,5 hPa 0,0 l/m 7,9 km/h (2 Bft) W-SW 247 -1,1 C -1,2 C
06.02.2013 10:36 1,3 C 84 % 998,4 hPa 0,0 l/m 9,7 km/h (2 Bft) SW 225 -1,1 C -1,7 C
06.02.2013 10:41 1,4 C 84 % 998,5 hPa 0,0 l/m 12,6 km/h (3 Bft) SW 225 -1,0 C -2,2 C
06.02.2013 10:46 1,5 C 84 % 998,5 hPa 0,0 l/m 6,5 km/h (2 Bft) S-SW 202 -0,9 C -0,5 C
06.02.2013 10:51 1,6 C 83 % 998,5 hPa 0,0 l/m 8,6 km/h (2 Bft) S-SW 202 -1,0 C -1,0 C
06.02.2013 10:56 1,6 C 83 % 998,5 hPa 0,0 l/m 4,0 km/h (1 Bft) SW 225 -1,0 C 1,6 C
06.02.2013 11:01 1,8 C 83 % 998,6 hPa 0,0 l/m 9,7 km/h (2 Bft) W 270 -0,8 C -1,1 C
06.02.2013 11:06 1,7 C 83 % 998,5 hPa 0,0 l/m 8,3 km/h (2 Bft) W-SW 247 -0,9 C -0,8 C
06.02.2013 11:11 1,8 C 83 % 998,4 hPa 0,0 l/m 6,1 km/h (2 Bft) S-SW 202 -0,8 C 0,0 C
06.02.2013 11:16 1,8 C 83 % 998,4 hPa 0,0 l/m 7,6 km/h (2 Bft) SW 225 -0,8 C -0,5 C
06.02.2013 11:21 1,9 C 83 % 998,5 hPa 0,0 l/m 5,8 km/h (2 Bft) SW 225 -0,7 C 0,2 C
06.02.2013 11:26 2,1 C 82 % 998,7 hPa 0,0 l/m 4,0 km/h (1 Bft) SW 225 -0,6 C 2,1 C
06.02.2013 11:31 2,1 C 82 % 998,6 hPa 0,0 l/m 10,4 km/h (2 Bft) W 270 -0,6 C -0,9 C
06.02.2013 11:36 2,1 C 82 % 998,4 hPa 0,0 l/m 10,8 km/h (2 Bft) SW 225 -0,6 C -1,0 C
06.02.2013 11:41 2,1 C 82 % 998,3 hPa 0,0 l/m 4,0 km/h (1 Bft) SW 225 -0,6 C 2,1 C
06.02.2013 11:46 2,1 C 82 % 998,5 hPa 0,0 l/m 7,6 km/h (2 Bft) W-SW 247 -0,6 C -0,2 C
06.02.2013 11:51 2,3 C 82 % 998,4 hPa 0,0 l/m 4,3 km/h (1 Bft) S-SW 202 -0,4 C 2,3 C
06.02.2013 11:56 2,3 C 82 % 998,3 hPa 0,0 l/m 12,2 km/h (2 Bft) W 270 -0,4 C -1,1 C
06.02.2013 12:01 2,4 C 81 % 998,2 hPa 0,0 l/m 12,6 km/h (3 Bft) W-SW 247 -0,5 C -1,0 C
06.02.2013 12:06 2,4 C 81 % 998,2 hPa 0,0 l/m 10,1 km/h (2 Bft) W-SW 247 -0,5 C -0,5 C
06.02.2013 12:11 2,4 C 81 % 998,2 hPa 0,0 l/m 8,3 km/h (2 Bft) W-SW 247 -0,5 C -0,0 C
06.02.2013 12:16 2,5 C 81 % 998,3 hPa 0,0 l/m 6,1 km/h (2 Bft) W-SW 247 -0,4 C 0,8 C
06.02.2013 12:21 2,6 C 81 % 998,3 hPa 0,0 l/m 8,3 km/h (2 Bft) W-SW 247 -0,3 C 0,2 C
06.02.2013 12:26 2,8 C 81 % 998,3 hPa 0,0 l/m 9,4 km/h (2 Bft) W-SW 247 -0,1 C 0,2 C
06.02.2013 12:31 2,9 C 81 % 998,4 hPa 0,5 l/m 3,2 km/h (1 Bft) S-SW 202 -0,0 C 2,9 C
06.02.2013 12:36 3,0 C 80 % 998,4 hPa 0,0 l/m 4,7 km/h (1 Bft) SW 225 -0,1 C 1,9 C
06.02.2013 12:41 3,3 C 81 % 998,3 hPa 0,0 l/m 4,3 km/h (1 Bft) SW 225 0,4 C 3,3 C
06.02.2013 12:46 3,4 C 80 % 998,3 hPa 0,0 l/m 5,4 km/h (1 Bft) SW 225 0,3 C 2,1 C
06.02.2013 12:51 3,3 C 79 % 998,3 hPa 0,0 l/m 6,1 km/h (2 Bft) SW 225 0,0 C 1,7 C
06.02.2013 12:56 3,3 C 79 % 998,3 hPa 0,0 l/m 6,5 km/h (2 Bft) W 270 0,0 C 1,6 C
06.02.2013 13:01 3,3 C 79 % 998,4 hPa 0,0 l/m 7,2 km/h (2 Bft) W-SW 247 0,0 C 1,4 C
06.02.2013 13:06 3,3 C 80 % 998,5 hPa 0,0 l/m 6,1 km/h (2 Bft) W-SW 247 0,2 C 1,7 C
06.02.2013 13:11 3,3 C 80 % 998,4 hPa 0,0 l/m 3,2 km/h (1 Bft) W-SW 247 0,2 C 3,3 C
06.02.2013 13:16 3,3 C 80 % 998,3 hPa 0,0 l/m 5,4 km/h (1 Bft) W-SW 247 0,2 C 2,0 C
06.02.2013 13:21 3,4 C 80 % 998,6 hPa 0,0 l/m 6,8 km/h (2 Bft) W-SW 247 0,3 C 1,6 C
06.02.2013 13:26 3,4 C 80 % 998,4 hPa 0,0 l/m 5,4 km/h (1 Bft) SW 225 0,3 C 2,1 C
06.02.2013 13:31 3,3 C 79 % 998,5 hPa 0,0 l/m 14,4 km/h (3 Bft) W-SW 247 0,0 C -0,2 C
06.02.2013 13:36 3,3 C 79 % 998,5 hPa 0,0 l/m 9,4 km/h (2 Bft) S-SW 202 0,0 C 0,8 C
06.02.2013 13:41 3,3 C 79 % 998,4 hPa 0,0 l/m 14,4 km/h (3 Bft) W-SW 247 0,0 C -0,2 C
06.02.2013 13:46 3,3 C 79 % 998,6 hPa 0,0 l/m 7,6 km/h (2 Bft) W-SW 247 0,0 C 1,3 C
06.02.2013 13:51 3,3 C 79 % 998,6 hPa 0,0 l/m 5,8 km/h (2 Bft) SW 225 0,0 C 1,8 C
06.02.2013 13:56 3,3 C 79 % 998,6 hPa 0,0 l/m 12,6 km/h (3 Bft) W 270 0,0 C 0,1 C
06.02.2013 14:01 3,4 C 79 % 998,6 hPa 0,0 l/m 10,4 km/h (2 Bft) W-SW 247 0,1 C 0,7 C
06.02.2013 14:06 3,3 C 79 % 998,6 hPa 0,0 l/m 9,0 km/h (2 Bft) W-SW 247 0,0 C 0,9 C
06.02.2013 14:11 3,3 C 79 % 998,5 hPa 0,0 l/m 6,1 km/h (2 Bft) W 270 0,0 C 1,7 C
06.02.2013 14:16 3,3 C 79 % 998,5 hPa 0,0 l/m 10,8 km/h (2 Bft) W-SW 247 0,0 C 0,4 C
06.02.2013 14:21 3,3 C 79 % 998,5 hPa 0,0 l/m 10,4 km/h (2 Bft) W-SW 247 0,0 C 0,5 C
06.02.2013 14:26 3,3 C 79 % 998,7 hPa 0,0 l/m 9,7 km/h (2 Bft) W 270 0,0 C 0,7 C
06.02.2013 14:31 3,3 C 79 % 998,7 hPa 0,0 l/m 8,3 km/h (2 Bft) W-SW 247 0,0 C 1,1 C
06.02.2013 14:36 3,3 C 79 % 998,8 hPa 0,0 l/m 1,1 km/h (1 Bft) W 270 0,0 C 3,3 C
06.02.2013 14:41 3,3 C 79 % 998,7 hPa 0,0 l/m 5,4 km/h (1 Bft) W 270 0,0 C 2,0 C
06.02.2013 14:46 3,2 C 79 % 998,8 hPa 0,0 l/m 5,4 km/h (1 Bft) NW 315 -0,1 C 1,9 C
06.02.2013 14:51 3,2 C 79 % 998,8 hPa 0,0 l/m 9,4 km/h (2 Bft) W-NW 292 -0,1 C 0,7 C
06.02.2013 14:56 3,1 C 78 % 998,8 hPa 0,0 l/m 2,2 km/h (1 Bft) W-SW 247 -0,4 C 3,1 C
06.02.2013 15:01 3,1 C 78 % 998,7 hPa 0,0 l/m 2,2 km/h (1 Bft) W-NW 292 -0,4 C 3,1 C
06.02.2013 15:06 3,1 C 78 % 998,6 hPa 0,0 l/m 5,8 km/h (2 Bft) W-SW 247 -0,4 C 1,6 C
06.02.2013 15:11 3,1 C 78 % 998,7 hPa 0,0 l/m 6,8 km/h (2 Bft) W 270 -0,4 C 1,3 C
06.02.2013 15:16 3,2 C 78 % 998,7 hPa 0,0 l/m 6,1 km/h (2 Bft) W-SW 247 -0,3 C 1,6 C
06.02.2013 15:21 3,2 C 78 % 998,7 hPa 0,0 l/m 10,1 km/h (2 Bft) NW 315 -0,3 C 0,5 C
06.02.2013 15:26 3,1 C 78 % 998,8 hPa 0,0 l/m 6,1 km/h (2 Bft) W 270 -0,4 C 1,5 C
06.02.2013 15:31 3,1 C 78 % 998,7 hPa 0,0 l/m 5,0 km/h (1 Bft) W-NW 292 -0,4 C 1,9 C
06.02.2013 15:36 3,1 C 77 % 998,7 hPa 0,0 l/m 7,2 km/h (2 Bft) W 270 -0,5 C 1,1 C
06.02.2013 15:41 3,1 C 77 % 998,7 hPa 0,0 l/m 18,7 km/h (3 Bft) W 270 -0,5 C -1,2 C
06.02.2013 15:46 3,2 C 77 % 998,7 hPa 0,0 l/m 0,0 km/h (0 Bft) W-NW 292 -0,4 C 3,2 C
06.02.2013 15:51 3,1 C 77 % 998,7 hPa 0,0 l/m 5,4 km/h (1 Bft) W-SW 247 -0,5 C 1,8 C
06.02.2013 15:56 3,1 C 77 % 998,6 hPa 0,0 l/m 8,3 km/h (2 Bft) W 270 -0,5 C 0,8 C
06.02.2013 16:01 3,1 C 77 % 998,7 hPa 0,0 l/m 11,2 km/h (2 Bft) W 270 -0,5 C 0,1 C
06.02.2013 16:06 3,1 C 77 % 998,6 hPa 0,0 l/m 8,3 km/h (2 Bft) W 270 -0,5 C 0,8 C
06.02.2013 16:11 3,1 C 77 % 998,6 hPa 0,0 l/m 6,1 km/h (2 Bft) W 270 -0,5 C 1,5 C
06.02.2013 16:16 3,1 C 77 % 998,9 hPa 0,0 l/m 13,7 km/h (3 Bft) W 270 -0,5 C -0,4 C
06.02.2013 16:21 3,1 C 77 % 998,7 hPa 0,0 l/m 6,1 km/h (2 Bft) W-SW 247 -0,5 C 1,5 C
06.02.2013 16:26 3,0 C 77 % 998,7 hPa 0,0 l/m 8,3 km/h (2 Bft) W-SW 247 -0,6 C 0,7 C
06.02.2013 16:31 2,9 C 77 % 998,7 hPa 0,0 l/m 4,3 km/h (1 Bft) W-SW 247 -0,7 C 2,9 C
06.02.2013 16:36 2,9 C 77 % 998,7 hPa 0,0 l/m 6,1 km/h (2 Bft) W-SW 247 -0,7 C 1,3 C
06.02.2013 16:41 2,9 C 77 % 998,7 hPa 0,0 l/m 9,4 km/h (2 Bft) W 270 -0,7 C 0,3 C
06.02.2013 16:46 2,9 C 77 % 998,7 hPa 0,0 l/m 11,9 km/h (2 Bft) W-SW 247 -0,7 C -0,3 C
06.02.2013 16:51 2,9 C 77 % 998,7 hPa 0,0 l/m 8,6 km/h (2 Bft) W-SW 247 -0,7 C 0,5 C
06.02.2013 16:56 2,9 C 77 % 998,7 hPa 0,0 l/m 9,4 km/h (2 Bft) W-SW 247 -0,7 C 0,3 C
06.02.2013 17:01 2,9 C 77 % 998,8 hPa 0,0 l/m 5,4 km/h (1 Bft) W-SW 247 -0,7 C 1,5 C
06.02.2013 17:06 2,8 C 77 % 998,8 hPa 0,0 l/m 16,6 km/h (3 Bft) W 270 -0,8 C -1,2 C
06.02.2013 17:11 2,8 C 77 % 998,8 hPa 0,0 l/m 9,4 km/h (2 Bft) W-SW 247 -0,8 C 0,2 C
06.02.2013 17:16 2,8 C 77 % 998,9 hPa 0,0 l/m 3,2 km/h (1 Bft) W 270 -0,8 C 2,8 C
06.02.2013 17:21 2,8 C 77 % 999,0 hPa 0,0 l/m 6,8 km/h (2 Bft) W-SW 247 -0,8 C 0,9 C
06.02.2013 17:26 2,8 C 77 % 999,1 hPa 0,0 l/m 3,6 km/h (1 Bft) W-SW 247 -0,8 C 2,8 C
06.02.2013 17:31 2,8 C 78 % 999,1 hPa 0,0 l/m 4,0 km/h (1 Bft) SW 225 -0,6 C 2,8 C
06.02.2013 17:36 2,8 C 78 % 999,1 hPa 0,0 l/m 4,7 km/h (1 Bft) W-SW 247 -0,6 C 1,7 C
06.02.2013 17:41 2,7 C 78 % 999,1 hPa 0,0 l/m 10,8 km/h (2 Bft) W-SW 247 -0,7 C -0,3 C
06.02.2013 17:46 2,7 C 78 % 999,0 hPa 0,0 l/m 8,3 km/h (2 Bft) W-SW 247 -0,7 C 0,3 C
06.02.2013 17:51 2,7 C 78 % 999,2 hPa 0,0 l/m 3,6 km/h (1 Bft) W-SW 247 -0,7 C 2,7 C
06.02.2013 17:56 2,7 C 78 % 999,3 hPa 0,0 l/m 5,0 km/h (1 Bft) W-SW 247 -0,7 C 1,5 C
06.02.2013 18:01 2,7 C 78 % 999,5 hPa 0,0 l/m 4,3 km/h (1 Bft) W-SW 247 -0,7 C 2,7 C
06.02.2013 18:06 2,7 C 78 % 999,5 hPa 0,0 l/m 3,6 km/h (1 Bft) SW 225 -0,7 C 2,7 C
06.02.2013 18:11 2,6 C 78 % 999,6 hPa 0,0 l/m 6,5 km/h (2 Bft) SW 225 -0,8 C 0,8 C
06.02.2013 18:16 2,6 C 78 % 999,6 hPa 0,0 l/m 3,6 km/h (1 Bft) S-SW 202 -0,8 C 2,6 C
06.02.2013 18:21 2,6 C 78 % 999,6 hPa 0,0 l/m 6,5 km/h (2 Bft) SW 225 -0,8 C 0,8 C
06.02.2013 18:26 2,6 C 78 % 999,7 hPa 0,0 l/m 7,6 km/h (2 Bft) W-SW 247 -0,8 C 0,4 C
06.02.2013 18:31 2,6 C 78 % 999,7 hPa 0,0 l/m 4,0 km/h (1 Bft) W-SW 247 -0,8 C 2,6 C
06.02.2013 18:36 2,6 C 78 % 999,8 hPa 0,0 l/m 6,5 km/h (2 Bft) W 270 -0,8 C 0,8 C
06.02.2013 18:41 2,6 C 78 % 999,8 hPa 0,0 l/m 8,6 km/h (2 Bft) W-SW 247 -0,8 C 0,1 C
06.02.2013 18:46 2,7 C 78 % 999,8 hPa 0,0 l/m 6,1 km/h (2 Bft) W-SW 247 -0,7 C 1,0 C
06.02.2013 18:51 2,6 C 78 % 999,9 hPa 0,0 l/m 5,0 km/h (1 Bft) S-SW 202 -0,8 C 1,4 C
06.02.2013 18:56 2,7 C 78 % 1000,0 hPa 0,0 l/m 6,1 km/h (2 Bft) W-SW 247 -0,7 C 1,0 C
06.02.2013 19:01 2,6 C 78 % 999,9 hPa 0,0 l/m 9,7 km/h (2 Bft) W-SW 247 -0,8 C -0,1 C
06.02.2013 19:06 2,6 C 78 % 999,8 hPa 0,0 l/m 12,2 km/h (2 Bft) W-SW 247 -0,8 C -0,7 C
06.02.2013 19:11 2,6 C 78 % 1000,0 hPa 0,0 l/m 10,1 km/h (2 Bft) W 270 -0,8 C -0,2 C
06.02.2013 19:16 2,6 C 78 % 1000,1 hPa 0,0 l/m 10,1 km/h (2 Bft) S-SW 202 -0,8 C -0,2 C
06.02.2013 19:21 2,6 C 78 % 1000,2 hPa 0,0 l/m 14,8 km/h (3 Bft) W-SW 247 -0,8 C -1,2 C
06.02.2013 19:26 2,6 C 78 % 1000,1 hPa 0,0 l/m 5,4 km/h (1 Bft) W 270 -0,8 C 1,2 C
06.02.2013 19:31 2,5 C 79 % 1000,3 hPa 0,0 l/m 9,7 km/h (2 Bft) W-SW 247 -0,8 C -0,3 C
06.02.2013 19:36 2,5 C 79 % 1000,3 hPa 0,0 l/m 7,2 km/h (2 Bft) W 270 -0,8 C 0,4 C
06.02.2013 19:41 2,5 C 79 % 1000,3 hPa 0,0 l/m 7,9 km/h (2 Bft) W-SW 247 -0,8 C 0,2 C
06.02.2013 19:46 2,4 C 79 % 1000,3 hPa 0,0 l/m 15,5 km/h (3 Bft) W-SW 247 -0,9 C -1,5 C
06.02.2013 19:51 2,4 C 79 % 1000,3 hPa 0,0 l/m 10,4 km/h (2 Bft) W 270 -0,9 C -0,5 C
06.02.2013 19:56 2,4 C 79 % 1000,3 hPa 0,0 l/m 9,0 km/h (2 Bft) W-SW 247 -0,9 C -0,2 C
06.02.2013 20:01 2,4 C 80 % 1000,3 hPa 0,0 l/m 15,5 km/h (3 Bft) W 270 -0,7 C -1,5 C
06.02.2013 20:06 2,3 C 80 % 1000,2 hPa 0,0 l/m 16,6 km/h (3 Bft) W-SW 247 -0,8 C -1,8 C
06.02.2013 20:11 2,3 C 80 % 1000,2 hPa 0,0 l/m 10,1 km/h (2 Bft) W-NW 292 -0,8 C -0,6 C
06.02.2013 20:16 2,1 C 80 % 1000,2 hPa 0,0 l/m 8,3 km/h (2 Bft) W-SW 247 -1,0 C -0,4 C
06.02.2013 20:21 2,1 C 80 % 1000,3 hPa 0,0 l/m 13,0 km/h (3 Bft) SW 225 -1,0 C -1,5 C
06.02.2013 20:26 2,0 C 80 % 1000,3 hPa 0,0 l/m 13,3 km/h (3 Bft) W 270 -1,1 C -1,6 C
06.02.2013 20:31 1,9 C 80 % 1000,3 hPa 0,0 l/m 7,9 km/h (2 Bft) W-NW 292 -1,2 C -0,5 C
06.02.2013 20:36 1,9 C 80 % 1000,3 hPa 0,0 l/m 13,7 km/h (3 Bft) W-SW 247 -1,2 C -1,8 C
06.02.2013 20:41 1,9 C 80 % 1000,3 hPa 0,0 l/m 8,3 km/h (2 Bft) SW 225 -1,2 C -0,6 C
06.02.2013 20:46 1,9 C 81 % 1000,3 hPa 0,0 l/m 7,2 km/h (2 Bft) W 270 -1,0 C -0,3 C
06.02.2013 20:51 1,9 C 81 % 1000,4 hPa 0,0 l/m 9,4 km/h (2 Bft) W-SW 247 -1,0 C -0,9 C
06.02.2013 20:56 1,9 C 81 % 1000,4 hPa 0,0 l/m 16,6 km/h (3 Bft) W 270 -1,0 C -2,3 C
06.02.2013 21:01 1,9 C 81 % 1000,4 hPa 0,0 l/m 5,8 km/h (2 Bft) W 270 -1,0 C 0,2 C
06.02.2013 21:06 1,9 C 81 % 1000,4 hPa 0,0 l/m 13,7 km/h (3 Bft) W-SW 247 -1,0 C -1,8 C
06.02.2013 21:11 2,0 C 81 % 1000,4 hPa 0,0 l/m 9,4 km/h (2 Bft) W-SW 247 -0,9 C -0,8 C
06.02.2013 21:16 2,1 C 81 % 1000,3 hPa 0,0 l/m 10,8 km/h (2 Bft) S 180 -0,8 C -1,0 C
06.02.2013 21:21 2,1 C 81 % 1000,5 hPa 0,0 l/m 11,2 km/h (2 Bft) W-SW 247 -0,8 C -1,1 C
06.02.2013 21:26 2,1 C 82 % 1000,4 hPa 0,0 l/m 8,3 km/h (2 Bft) W 270 -0,6 C -0,4 C
06.02.2013 21:31 2,1 C 82 % 1000,6 hPa 0,0 l/m 13,0 km/h (3 Bft) W-SW 247 -0,6 C -1,5 C
06.02.2013 21:36 2,1 C 82 % 1000,5 hPa 0,0 l/m 10,8 km/h (2 Bft) W-SW 247 -0,6 C -1,0 C
06.02.2013 21:41 2,1 C 82 % 1000,4 hPa 0,0 l/m 9,7 km/h (2 Bft) W-SW 247 -0,6 C -0,7 C
06.02.2013 21:46 2,1 C 82 % 1000,3 hPa 0,0 l/m 8,3 km/h (2 Bft) SW 225 -0,6 C -0,4 C
06.02.2013 21:51 2,1 C 82 % 1000,4 hPa 0,0 l/m 15,8 km/h (3 Bft) W 270 -0,6 C -2,0 C
06.02.2013 21:56 2,1 C 82 % 1000,4 hPa 0,0 l/m 21,2 km/h (4 Bft) W 270 -0,6 C -2,8 C
06.02.2013 22:01 2,1 C 82 % 1000,4 hPa 0,0 l/m 16,6 km/h (3 Bft) W-SW 247 -0,6 C -2,1 C
06.02.2013 22:06 2,1 C 82 % 1000,4 hPa 0,0 l/m 6,5 km/h (2 Bft) W 270 -0,6 C 0,2 C
06.02.2013 22:11 2,1 C 82 % 1000,5 hPa 0,0 l/m 16,2 km/h (3 Bft) W 270 -0,6 C -2,0 C
06.02.2013 22:16 2,1 C 82 % 1000,5 hPa 0,0 l/m 13,3 km/h (3 Bft) W 270 -0,6 C -1,5 C
06.02.2013 22:21 2,1 C 83 % 1000,5 hPa 0,0 l/m 14,4 km/h (3 Bft) W 270 -0,5 C -1,7 C
06.02.2013 22:26 2,1 C 83 % 1000,5 hPa 0,0 l/m 13,7 km/h (3 Bft) W 270 -0,5 C -1,6 C
06.02.2013 22:31 2,1 C 83 % 1000,6 hPa 0,0 l/m 14,4 km/h (3 Bft) W 270 -0,5 C -1,7 C
06.02.2013 22:36 2,1 C 83 % 1000,6 hPa 0,0 l/m 11,2 km/h (2 Bft) W 270 -0,5 C -1,1 C
06.02.2013 22:41 2,1 C 83 % 1000,7 hPa 0,0 l/m 14,0 km/h (3 Bft) W 270 -0,5 C -1,6 C
06.02.2013 22:46 2,1 C 83 % 1000,5 hPa 0,0 l/m 6,1 km/h (2 Bft) SW 225 -0,5 C 0,4 C
06.02.2013 22:51 2,1 C 83 % 1000,7 hPa 0,0 l/m 6,1 km/h (2 Bft) W-SW 247 -0,5 C 0,4 C
06.02.2013 22:56 2,1 C 83 % 1000,7 hPa 0,0 l/m 15,8 km/h (3 Bft) W-SW 247 -0,5 C -2,0 C
06.02.2013 23:01 2,1 C 84 % 1000,7 hPa 0,0 l/m 18,7 km/h (3 Bft) W-SW 247 -0,3 C -2,4 C
06.02.2013 23:06 2,1 C 84 % 1000,6 hPa 0,0 l/m 23,8 km/h (4 Bft) W 270 -0,3 C -3,1 C
06.02.2013 23:11 2,1 C 84 % 1000,7 hPa 0,0 l/m 8,6 km/h (2 Bft) W 270 -0,3 C -0,4 C
06.02.2013 23:16 2,1 C 85 % 1000,7 hPa 0,0 l/m 10,4 km/h (2 Bft) W-SW 247 -0,2 C -0,9 C
06.02.2013 23:21 2,1 C 85 % 1000,8 hPa 0,0 l/m 18,4 km/h (3 Bft) W 270 -0,2 C -2,4 C
06.02.2013 23:26 2,1 C 85 % 1000,7 hPa 0,0 l/m 11,9 km/h (2 Bft) W-SW 247 -0,2 C -1,2 C
06.02.2013 23:31 2,1 C 85 % 1000,7 hPa 0,0 l/m 13,0 km/h (3 Bft) W-SW 247 -0,2 C -1,5 C
06.02.2013 23:36 2,1 C 85 % 1000,8 hPa 0,0 l/m 4,0 km/h (1 Bft) W 270 -0,2 C 2,1 C
06.02.2013 23:41 2,1 C 85 % 1000,9 hPa 0,0 l/m 6,1 km/h (2 Bft) W-SW 247 -0,2 C 0,4 C
06.02.2013 23:46 1,9 C 85 % 1000,7 hPa 0,0 l/m 13,3 km/h (3 Bft) W-SW 247 -0,3 C -1,8 C
06.02.2013 23:51 1,8 C 86 % 1000,9 hPa 0,0 l/m 16,9 km/h (3 Bft) W-SW 247 -0,3 C -2,5 C
06.02.2013 23:56 1,8 C 86 % 1001,0 hPa 0,0 l/m 5,8 km/h (2 Bft) SW 225 -0,3 C 0,1 C
_ Min-Zeit 05:36 15:36 00:06 - 15:46 - - 05:36 06:46
Minimum _ -1,5 C 77 % 996,7 hPa - 0,0 km/h (0 Bft) - - -3,1 C -6,0 C
_ Max-Zeit 12:46 02:56 23:56 10:06 23:06 - - 12:41 12:41
Maximum _ 3,4 C 90 % 1001,0 hPa 0,5 l/m 23,8 km/h
W (4 Bft)
- - 0,4 C 3,3 C
Durchschnitt _ 1,1 C 84 % 998,5 hPa #1,0 l/m 8,4 km/h (2 Bft) W-SW - -1,3 C -1,2 C
(c) by David Heller